Monday, December 18, 2017, 12:46 PM GMT
Back to Local

CWQP, Point Petre , Ont.

Location: , , Canada Lat: 43.833
Local Time: 12:46 PM GMT (12:46 GMT) Lon: -77.15
Time Zone: GMT Elev: 259 ft

Show me the last for .
Show Coded

Time T Td Feel RH Dir Speed Gust Alt SLP Vis Weather Sky Remarks
2017-12-18 12:00 25 23 15 92 60° 10 - - 30.01 0 None
2017-12-18 11:00 22 19 10 89 50° 12 - - 30.02 0 None
2017-12-18 10:00 23 21 11 92 40° 12 - - 30.03 0 None
2017-12-18 09:00 22 20 11 91 50° 10 - - 30.05 0 None
2017-12-18 08:00 20 18 7 91 50° 13 - - 30.06 0 None
2017-12-18 07:00 19 17 7 89 40° 13 - - 30.09 0 None
2017-12-18 06:00 22 19 11 87 40° 10 - - 30.10 0 None
2017-12-18 05:00 22 18 11 83 50° 12 - - 30.13 0 None
2017-12-18 04:00 20 16 8 81 50° 13 - - 30.14 0 None
2017-12-18 03:00 20 13 8 76 80° 10 - - 30.17 0 None
2017-12-18 02:00 19 13 7 80 60° 10 - - 30.21 0 None
2017-12-18 01:00 17 12 5 80 50° 12 - - 30.24 0 None
2017-12-18 00:00 17 12 6 79 50° 9 - - 30.25 0 None
2017-12-17 23:00 16 11 4 81 40° 10 - - 30.27 0 None
2017-12-17 22:00 15 10 3 80 40° 10 - - 30.27 0 None
2017-12-17 21:00 15 10 3 78 40° 10 - - 30.27 0 None
2017-12-17 20:00 16 10 5 75 30° 8 - - 30.30 0 None
2017-12-17 19:00 16 11 5 82 40° 8 - - 30.31 0 None
2017-12-17 18:00 16 6 5 65 40° 8 - - 30.30 0 None
2017-12-17 17:00 15 4 5 60 30° 7 - - 30.34 0 None
2017-12-17 16:00 12 2 1 62 40° 8 - - 30.37 0 None
2017-12-17 15:00 9 1 -4 67 30° 9 - - 30.37 0 None
2017-12-17 14:00 5 -3 -10 69 20° 9 - - 30.36 0 1-hr Precip Total: 0.02"
2017-12-17 13:00 2 -4 -15 76 20° 12 - - 30.35 0 None

Support USWX by starting your Amazon purchase here.